sensor_id;sensor_type;location;lat;lon;timestamp;pressure;altitude;pressure_sealevel;temperature;humidity
31195;BME280;17819;36.316;-93.164;2022-10-01T00:01:40;114490.28;;;-146.31;32.97
31195;BME280;17819;36.316;-93.164;2022-10-01T00:03:44;114490.28;;;-146.31;33.17
31195;BME280;17819;36.316;-93.164;2022-10-01T00:06:24;114490.28;;;-146.31;34.36
31195;BME280;17819;36.316;-93.164;2022-10-01T00:08:21;114490.28;;;-146.31;33.25
31195;BME280;17819;36.316;-93.164;2022-10-01T00:10:24;114490.28;;;-146.31;33.71
31195;BME280;17819;36.316;-93.164;2022-10-01T00:12:28;114490.28;;;-146.31;34.03
31195;BME280;17819;36.316;-93.164;2022-10-01T00:14:32;114490.28;;;-146.31;35.03
31195;BME280;17819;36.316;-93.164;2022-10-01T00:16:36;114490.28;;;-146.31;35.57
31195;BME280;17819;36.316;-93.164;2022-10-01T00:18:41;114490.28;;;-146.31;36.18
31195;BME280;17819;36.316;-93.164;2022-10-01T00:20:45;114490.28;;;-146.31;35.68
31195;BME280;17819;36.316;-93.164;2022-10-01T00:22:49;114490.28;;;-146.31;35.39
31195;BME280;17819;36.316;-93.164;2022-10-01T00:24:54;114490.28;;;-146.31;35.61
31195;BME280;17819;36.316;-93.164;2022-10-01T00:26:58;114490.28;;;-146.31;36.96
31195;BME280;17819;36.316;-93.164;2022-10-01T00:29:04;114490.28;;;-146.31;37.13
31195;BME280;17819;36.316;-93.164;2022-10-01T00:31:09;114490.28;;;-146.31;38.60
31195;BME280;17819;36.316;-93.164;2022-10-01T00:33:12;114490.28;;;-146.31;38.63
31195;BME280;17819;36.316;-93.164;2022-10-01T00:35:21;114490.28;;;-146.31;39.68
31195;BME280;17819;36.316;-93.164;2022-10-01T00:37:25;114490.28;;;-146.31;38.92
31195;BME280;17819;36.316;-93.164;2022-10-01T00:39:29;114490.28;;;-146.31;40.42
31195;BME280;17819;36.316;-93.164;2022-10-01T00:41:32;114490.28;;;-146.31;41.07
31195;BME280;17819;36.316;-93.164;2022-10-01T00:43:40;114490.28;;;-146.31;42.41
31195;BME280;17819;36.316;-93.164;2022-10-01T00:45:44;114490.28;;;-146.31;41.61
31195;BME280;17819;36.316;-93.164;2022-10-01T00:47:57;114490.28;;;-146.31;42.03
31195;BME280;17819;36.316;-93.164;2022-10-01T00:50:06;114490.28;;;-146.31;43.65
31195;BME280;17819;36.316;-93.164;2022-10-01T00:52:15;114490.28;;;-146.31;42.36
31195;BME280;17819;36.316;-93.164;2022-10-01T00:54:21;114490.28;;;-146.31;42.14
31195;BME280;17819;36.316;-93.164;2022-10-01T00:56:27;114490.28;;;-146.31;41.87
31195;BME280;17819;36.316;-93.164;2022-10-01T00:58:30;114490.28;;;-146.31;41.01
31195;BME280;17819;36.316;-93.164;2022-10-01T01:00:36;114490.28;;;-146.31;41.96
31195;BME280;17819;36.316;-93.164;2022-10-01T01:02:40;114490.28;;;-146.31;43.63
31195;BME280;17819;36.316;-93.164;2022-10-01T01:04:44;114490.28;;;-146.31;45.29
31195;BME280;17819;36.316;-93.164;2022-10-01T01:06:55;114490.28;;;-146.31;45.36
31195;BME280;17819;36.316;-93.164;2022-10-01T01:09:00;114490.28;;;-146.31;44.19
31195;BME280;17819;36.316;-93.164;2022-10-01T01:11:14;114490.28;;;-146.31;45.57
31195;BME280;17819;36.316;-93.164;2022-10-01T01:15:35;114490.28;;;-146.31;46.25
31195;BME280;17819;36.316;-93.164;2022-10-01T01:22:09;114490.28;;;-146.31;46.68
31195;BME280;17819;36.316;-93.164;2022-10-01T01:28:37;114490.28;;;-146.31;45.71
31195;BME280;17819;36.316;-93.164;2022-10-01T01:30:42;114490.28;;;-146.31;43.27
31195;BME280;17819;36.316;-93.164;2022-10-01T01:32:49;114490.28;;;-146.31;40.94
31195;BME280;17819;36.316;-93.164;2022-10-01T01:35:00;114490.28;;;-146.31;39.42
31195;BME280;17819;36.316;-93.164;2022-10-01T01:37:06;114490.28;;;-146.31;39.55
31195;BME280;17819;36.316;-93.164;2022-10-01T01:39:14;114490.28;;;-146.31;39.27
31195;BME280;17819;36.316;-93.164;2022-10-01T01:41:24;114490.28;;;-146.31;38.05
31195;BME280;17819;36.316;-93.164;2022-10-01T01:43:34;114490.28;;;-146.31;37.48
31195;BME280;17819;36.316;-93.164;2022-10-01T01:45:39;114490.28;;;-146.31;38.65
31195;BME280;17819;36.316;-93.164;2022-10-01T01:47:44;114490.28;;;-146.31;37.65
31195;BME280;17819;36.316;-93.164;2022-10-01T01:49:49;114490.28;;;-146.31;37.68
31195;BME280;17819;36.316;-93.164;2022-10-01T01:52:10;114490.28;;;-146.31;38.46
31195;BME280;17819;36.316;-93.164;2022-10-01T01:54:16;114490.28;;;-146.31;38.09
31195;BME280;17819;36.316;-93.164;2022-10-01T01:56:19;114490.28;;;-146.31;38.57
31195;BME280;17819;36.316;-93.164;2022-10-01T01:58:23;114490.28;;;-146.31;38.15
31195;BME280;17819;36.316;-93.164;2022-10-01T02:00:28;114490.28;;;-146.31;38.49
31195;BME280;17819;36.316;-93.164;2022-10-01T02:02:32;114490.28;;;-146.31;38.65
31195;BME280;17819;36.316;-93.164;2022-10-01T02:04:39;114490.28;;;-146.31;39.00
31195;BME280;17819;36.316;-93.164;2022-10-01T02:06:58;114490.28;;;-146.31;39.62
31195;BME280;17819;36.316;-93.164;2022-10-01T02:09:08;114490.28;;;-146.31;40.65
31195;BME280;17819;36.316;-93.164;2022-10-01T02:11:22;114490.28;;;-146.31;39.95
31195;BME280;17819;36.316;-93.164;2022-10-01T02:17:53;114490.28;;;-146.31;39.71
31195;BME280;17819;36.316;-93.164;2022-10-01T02:22:03;114490.28;;;-146.31;39.56
31195;BME280;17819;36.316;-93.164;2022-10-01T02:24:23;114490.28;;;-146.31;40.13
31195;BME280;17819;36.316;-93.164;2022-10-01T02:26:29;114490.28;;;-146.31;41.23
31195;BME280;17819;36.316;-93.164;2022-10-01T02:28:36;114490.28;;;-146.31;41.29
31195;BME280;17819;36.316;-93.164;2022-10-01T02:30:43;114490.28;;;-146.31;39.57
31195;BME280;17819;36.316;-93.164;2022-10-01T02:32:48;114490.28;;;-146.31;39.86
31195;BME280;17819;36.316;-93.164;2022-10-01T02:34:52;114490.28;;;-146.31;40.34
31195;BME280;17819;36.316;-93.164;2022-10-01T02:36:57;114490.28;;;-146.31;40.35
31195;BME280;17819;36.316;-93.164;2022-10-01T02:39:02;114490.28;;;-146.31;40.73
31195;BME280;17819;36.316;-93.164;2022-10-01T02:41:07;114490.28;;;-146.31;40.19
31195;BME280;17819;36.316;-93.164;2022-10-01T02:43:18;114490.28;;;-146.31;40.50
31195;BME280;17819;36.316;-93.164;2022-10-01T02:45:23;114490.28;;;-146.31;40.36
31195;BME280;17819;36.316;-93.164;2022-10-01T02:47:35;114490.28;;;-146.31;40.38
31195;BME280;17819;36.316;-93.164;2022-10-01T02:49:41;114490.28;;;-146.31;40.31
31195;BME280;17819;36.316;-93.164;2022-10-01T02:51:48;114490.28;;;-146.31;41.12
31195;BME280;17819;36.316;-93.164;2022-10-01T02:53:58;114490.28;;;-146.31;41.77
31195;BME280;17819;36.316;-93.164;2022-10-01T02:56:04;114490.28;;;-146.31;41.35
31195;BME280;17819;36.316;-93.164;2022-10-01T02:58:09;114490.28;;;-146.31;41.31
31195;BME280;17819;36.316;-93.164;2022-10-01T03:00:15;114490.28;;;-146.31;41.83
31195;BME280;17819;36.316;-93.164;2022-10-01T03:02:19;114490.28;;;-146.31;41.07
31195;BME280;17819;36.316;-93.164;2022-10-01T03:04:24;114490.28;;;-146.31;41.64
31195;BME280;17819;36.316;-93.164;2022-10-01T03:06:28;114490.28;;;-146.31;41.49
31195;BME280;17819;36.316;-93.164;2022-10-01T03:08:31;114490.28;;;-146.31;40.64
31195;BME280;17819;36.316;-93.164;2022-10-01T03:10:37;114490.28;;;-146.31;42.07
31195;BME280;17819;36.316;-93.164;2022-10-01T03:12:47;114490.28;;;-146.31;40.37
31195;BME280;17819;36.316;-93.164;2022-10-01T03:14:56;114490.28;;;-146.31;41.58
31195;BME280;17819;36.316;-93.164;2022-10-01T03:17:00;114490.28;;;-146.31;40.81
31195;BME280;17819;36.316;-93.164;2022-10-01T03:19:04;114490.28;;;-146.31;41.05
31195;BME280;17819;36.316;-93.164;2022-10-01T03:21:08;114490.28;;;-146.31;40.91
31195;BME280;17819;36.316;-93.164;2022-10-01T03:23:12;114490.28;;;-146.31;41.92
31195;BME280;17819;36.316;-93.164;2022-10-01T03:25:16;114490.28;;;-146.31;42.75
31195;BME280;17819;36.316;-93.164;2022-10-01T03:27:19;114490.28;;;-146.31;42.81
31195;BME280;17819;36.316;-93.164;2022-10-01T03:29:24;114490.28;;;-146.31;43.74
31195;BME280;17819;36.316;-93.164;2022-10-01T03:31:28;114490.28;;;-146.31;45.39
31195;BME280;17819;36.316;-93.164;2022-10-01T03:33:31;114490.28;;;-146.31;45.49
31195;BME280;17819;36.316;-93.164;2022-10-01T03:35:35;114490.28;;;-146.31;44.63
31195;BME280;17819;36.316;-93.164;2022-10-01T03:37:42;114490.28;;;-146.31;46.29
31195;BME280;17819;36.316;-93.164;2022-10-01T03:39:45;114490.28;;;-146.31;47.13
31195;BME280;17819;36.316;-93.164;2022-10-01T03:41:49;114490.28;;;-146.31;47.37
31195;BME280;17819;36.316;-93.164;2022-10-01T03:43:52;114490.28;;;-146.31;47.63
31195;BME280;17819;36.316;-93.164;2022-10-01T03:46:01;114490.28;;;-146.31;48.12
31195;BME280;17819;36.316;-93.164;2022-10-01T03:48:08;114490.28;;;-146.31;47.02
31195;BME280;17819;36.316;-93.164;2022-10-01T03:50:12;114490.28;;;-146.31;47.50
31195;BME280;17819;36.316;-93.164;2022-10-01T03:52:16;114490.28;;;-146.31;48.33
31195;BME280;17819;36.316;-93.164;2022-10-01T03:54:20;114490.28;;;-146.31;48.78
31195;BME280;17819;36.316;-93.164;2022-10-01T03:56:23;114490.28;;;-146.31;49.36
31195;BME280;17819;36.316;-93.164;2022-10-01T03:58:27;114490.28;;;-146.31;51.19
31195;BME280;17819;36.316;-93.164;2022-10-01T04:00:30;114490.28;;;-146.31;51.16
31195;BME280;17819;36.316;-93.164;2022-10-01T04:02:34;114490.28;;;-146.31;50.55
31195;BME280;17819;36.316;-93.164;2022-10-01T04:04:38;114490.28;;;-146.31;51.11
31195;BME280;17819;36.316;-93.164;2022-10-01T04:06:41;114490.28;;;-146.31;51.34
31195;BME280;17819;36.316;-93.164;2022-10-01T04:08:45;114490.28;;;-146.31;52.74
31195;BME280;17819;36.316;-93.164;2022-10-01T04:10:49;114490.28;;;-146.31;53.86
31195;BME280;17819;36.316;-93.164;2022-10-01T04:12:53;114490.28;;;-146.31;54.77
31195;BME280;17819;36.316;-93.164;2022-10-01T04:14:57;114490.28;;;-146.31;55.53
31195;BME280;17819;36.316;-93.164;2022-10-01T04:17:01;114490.28;;;-146.31;55.04
31195;BME280;17819;36.316;-93.164;2022-10-01T04:19:05;114490.28;;;-146.31;56.83
31195;BME280;17819;36.316;-93.164;2022-10-01T04:21:08;114490.28;;;-146.31;58.21
31195;BME280;17819;36.316;-93.164;2022-10-01T04:23:14;114490.28;;;-146.31;55.42
31195;BME280;17819;36.316;-93.164;2022-10-01T04:25:20;114490.28;;;-146.31;56.82
31195;BME280;17819;36.316;-93.164;2022-10-01T04:27:23;114490.28;;;-146.31;57.16
31195;BME280;17819;36.316;-93.164;2022-10-01T04:29:27;114490.28;;;-146.31;56.08
31195;BME280;17819;36.316;-93.164;2022-10-01T04:31:31;114490.28;;;-146.31;55.86
31195;BME280;17819;36.316;-93.164;2022-10-01T04:33:40;114490.28;;;-146.31;57.51
31195;BME280;17819;36.316;-93.164;2022-10-01T04:35:44;114490.28;;;-146.31;58.07
31195;BME280;17819;36.316;-93.164;2022-10-01T04:37:54;114490.28;;;-146.31;59.13
31195;BME280;17819;36.316;-93.164;2022-10-01T04:39:58;114490.28;;;-146.31;57.69
31195;BME280;17819;36.316;-93.164;2022-10-01T04:42:07;114490.28;;;-146.31;58.94
31195;BME280;17819;36.316;-93.164;2022-10-01T04:44:10;114490.28;;;-146.31;60.34
31195;BME280;17819;36.316;-93.164;2022-10-01T04:46:14;114490.28;;;-146.31;57.64
31195;BME280;17819;36.316;-93.164;2022-10-01T04:48:18;114490.28;;;-146.31;57.05
31195;BME280;17819;36.316;-93.164;2022-10-01T04:50:22;114490.28;;;-146.31;58.47
31195;BME280;17819;36.316;-93.164;2022-10-01T04:52:26;114490.28;;;-146.31;60.57
31195;BME280;17819;36.316;-93.164;2022-10-01T04:54:39;114490.28;;;-146.31;63.48
31195;BME280;17819;36.316;-93.164;2022-10-01T04:56:43;114490.28;;;-146.31;59.50
31195;BME280;17819;36.316;-93.164;2022-10-01T04:58:46;114490.28;;;-146.31;57.01
31195;BME280;17819;36.316;-93.164;2022-10-01T05:00:51;114490.28;;;-146.31;59.94
31195;BME280;17819;36.316;-93.164;2022-10-01T05:02:57;114490.28;;;-146.31;57.68
31195;BME280;17819;36.316;-93.164;2022-10-01T05:05:01;114490.28;;;-146.31;62.14
31195;BME280;17819;36.316;-93.164;2022-10-01T05:07:06;114490.28;;;-146.31;62.32
31195;BME280;17819;36.316;-93.164;2022-10-01T05:09:09;114490.28;;;-146.31;62.70
31195;BME280;17819;36.316;-93.164;2022-10-01T05:11:17;114490.28;;;-146.31;62.46
31195;BME280;17819;36.316;-93.164;2022-10-01T05:15:48;114490.28;;;-146.31;61.92
31195;BME280;17819;36.316;-93.164;2022-10-01T05:17:54;114490.28;;;-146.31;62.56
31195;BME280;17819;36.316;-93.164;2022-10-01T05:19:58;114490.28;;;-146.31;62.44
31195;BME280;17819;36.316;-93.164;2022-10-01T05:22:07;114490.28;;;-146.31;64.72
31195;BME280;17819;36.316;-93.164;2022-10-01T05:24:11;114490.28;;;-146.31;63.12
31195;BME280;17819;36.316;-93.164;2022-10-01T05:26:14;114490.28;;;-146.31;62.01
31195;BME280;17819;36.316;-93.164;2022-10-01T05:28:18;114490.28;;;-146.31;60.76
31195;BME280;17819;36.316;-93.164;2022-10-01T05:30:23;114490.28;;;-146.31;59.87
31195;BME280;17819;36.316;-93.164;2022-10-01T05:32:27;114490.28;;;-146.31;60.54
31195;BME280;17819;36.316;-93.164;2022-10-01T05:34:37;114490.28;;;-146.31;59.29
31195;BME280;17819;36.316;-93.164;2022-10-01T05:36:40;114490.28;;;-146.31;59.40
31195;BME280;17819;36.316;-93.164;2022-10-01T05:38:46;114490.28;;;-146.31;59.47
31195;BME280;17819;36.316;-93.164;2022-10-01T05:40:50;114490.28;;;-146.31;58.39
31195;BME280;17819;36.316;-93.164;2022-10-01T05:42:54;114490.28;;;-146.31;58.30
31195;BME280;17819;36.316;-93.164;2022-10-01T05:44:59;114490.28;;;-146.31;60.22
31195;BME280;17819;36.316;-93.164;2022-10-01T05:47:06;114490.28;;;-146.31;59.50
31195;BME280;17819;36.316;-93.164;2022-10-01T05:49:09;114490.28;;;-146.31;63.22
31195;BME280;17819;36.316;-93.164;2022-10-01T05:51:13;114490.28;;;-146.31;58.47
31195;BME280;17819;36.316;-93.164;2022-10-01T05:53:17;114490.28;;;-146.31;61.20
31195;BME280;17819;36.316;-93.164;2022-10-01T05:55:20;114490.28;;;-146.31;60.15
31195;BME280;17819;36.316;-93.164;2022-10-01T05:57:25;114490.28;;;-146.31;59.07
31195;BME280;17819;36.316;-93.164;2022-10-01T05:59:28;114490.28;;;-146.31;61.34
31195;BME280;17819;36.316;-93.164;2022-10-01T06:01:33;114490.28;;;-146.31;60.28
31195;BME280;17819;36.316;-93.164;2022-10-01T06:03:37;114490.28;;;-146.31;61.97
31195;BME280;17819;36.316;-93.164;2022-10-01T06:05:42;114490.28;;;-146.31;63.66
31195;BME280;17819;36.316;-93.164;2022-10-01T06:07:46;114490.28;;;-146.31;65.39
31195;BME280;17819;36.316;-93.164;2022-10-01T06:09:50;114490.28;;;-146.31;66.62
31195;BME280;17819;36.316;-93.164;2022-10-01T06:11:53;114490.28;;;-146.31;69.37
31195;BME280;17819;36.316;-93.164;2022-10-01T06:13:58;114490.28;;;-146.31;68.15
31195;BME280;17819;36.316;-93.164;2022-10-01T06:16:02;114490.28;;;-146.31;67.74
31195;BME280;17819;36.316;-93.164;2022-10-01T06:18:06;114490.28;;;-146.31;67.97
31195;BME280;17819;36.316;-93.164;2022-10-01T06:20:11;114490.28;;;-146.31;69.98
31195;BME280;17819;36.316;-93.164;2022-10-01T06:22:16;114490.28;;;-146.31;67.97
31195;BME280;17819;36.316;-93.164;2022-10-01T06:24:19;114490.28;;;-146.31;68.82
31195;BME280;17819;36.316;-93.164;2022-10-01T06:26:23;114490.28;;;-146.31;71.50
31195;BME280;17819;36.316;-93.164;2022-10-01T06:28:27;114490.28;;;-146.31;70.49
31195;BME280;17819;36.316;-93.164;2022-10-01T06:30:31;114490.28;;;-146.31;67.80
31195;BME280;17819;36.316;-93.164;2022-10-01T06:32:35;114490.28;;;-146.31;70.13
31195;BME280;17819;36.316;-93.164;2022-10-01T06:34:39;114490.28;;;-146.31;70.10
31195;BME280;17819;36.316;-93.164;2022-10-01T06:36:42;114490.28;;;-146.31;69.96
31195;BME280;17819;36.316;-93.164;2022-10-01T06:38:47;114490.28;;;-146.31;68.40
31195;BME280;17819;36.316;-93.164;2022-10-01T06:40:54;114490.28;;;-146.31;71.00
31195;BME280;17819;36.316;-93.164;2022-10-01T06:42:58;114490.28;;;-146.31;71.23
31195;BME280;17819;36.316;-93.164;2022-10-01T06:45:02;114490.28;;;-146.31;71.96
31195;BME280;17819;36.316;-93.164;2022-10-01T06:47:05;114490.28;;;-146.31;72.99
31195;BME280;17819;36.316;-93.164;2022-10-01T06:49:09;114490.28;;;-146.31;72.59
31195;BME280;17819;36.316;-93.164;2022-10-01T06:51:13;114490.28;;;-146.31;72.47
31195;BME280;17819;36.316;-93.164;2022-10-01T06:53:16;114490.28;;;-146.31;73.19
31195;BME280;17819;36.316;-93.164;2022-10-01T06:55:22;114490.28;;;-146.31;74.59
31195;BME280;17819;36.316;-93.164;2022-10-01T06:57:27;114490.28;;;-146.31;74.08
31195;BME280;17819;36.316;-93.164;2022-10-01T06:59:30;114490.28;;;-146.31;74.51
31195;BME280;17819;36.316;-93.164;2022-10-01T07:01:34;114490.28;;;-146.31;75.32
31195;BME280;17819;36.316;-93.164;2022-10-01T07:03:38;114490.28;;;-146.31;76.73
31195;BME280;17819;36.316;-93.164;2022-10-01T07:05:42;114490.28;;;-146.31;76.49
31195;BME280;17819;36.316;-93.164;2022-10-01T07:07:45;114490.28;;;-146.31;75.73
31195;BME280;17819;36.316;-93.164;2022-10-01T07:09:50;114490.28;;;-146.31;75.13
31195;BME280;17819;36.316;-93.164;2022-10-01T07:11:56;114490.28;;;-146.31;76.61
31195;BME280;17819;36.316;-93.164;2022-10-01T07:14:00;114490.28;;;-146.31;76.61
31195;BME280;17819;36.316;-93.164;2022-10-01T07:16:04;114490.28;;;-146.31;75.44
31195;BME280;17819;36.316;-93.164;2022-10-01T07:18:11;114490.28;;;-146.31;73.57
31195;BME280;17819;36.316;-93.164;2022-10-01T07:20:16;114490.28;;;-146.31;76.87
31195;BME280;17819;36.316;-93.164;2022-10-01T07:22:20;114490.28;;;-146.31;76.70
31195;BME280;17819;36.316;-93.164;2022-10-01T07:24:29;114490.28;;;-146.31;77.30
31195;BME280;17819;36.316;-93.164;2022-10-01T07:26:33;114490.28;;;-146.31;79.17
31195;BME280;17819;36.316;-93.164;2022-10-01T07:28:37;114490.28;;;-146.31;79.44
31195;BME280;17819;36.316;-93.164;2022-10-01T07:30:41;114490.28;;;-146.31;80.20
31195;BME280;17819;36.316;-93.164;2022-10-01T07:32:45;114490.28;;;-146.31;79.84
31195;BME280;17819;36.316;-93.164;2022-10-01T07:34:49;114490.28;;;-146.31;79.50
31195;BME280;17819;36.316;-93.164;2022-10-01T07:36:52;114490.28;;;-146.31;79.09
31195;BME280;17819;36.316;-93.164;2022-10-01T07:38:58;114490.28;;;-146.31;79.47
31195;BME280;17819;36.316;-93.164;2022-10-01T07:41:03;114490.28;;;-146.31;79.67
31195;BME280;17819;36.316;-93.164;2022-10-01T07:43:07;114490.28;;;-146.31;79.77
31195;BME280;17819;36.316;-93.164;2022-10-01T07:45:11;114490.28;;;-146.31;79.65
31195;BME280;17819;36.316;-93.164;2022-10-01T07:47:15;114490.28;;;-146.31;79.02
31195;BME280;17819;36.316;-93.164;2022-10-01T07:49:19;114490.28;;;-146.31;79.29
31195;BME280;17819;36.316;-93.164;2022-10-01T07:51:22;114490.28;;;-146.31;80.63
31195;BME280;17819;36.316;-93.164;2022-10-01T07:53:32;114490.28;;;-146.31;80.67
31195;BME280;17819;36.316;-93.164;2022-10-01T07:55:35;114490.28;;;-146.31;80.51
31195;BME280;17819;36.316;-93.164;2022-10-01T07:57:38;114490.28;;;-146.31;80.58
31195;BME280;17819;36.316;-93.164;2022-10-01T07:59:42;114490.28;;;-146.31;80.37
31195;BME280;17819;36.316;-93.164;2022-10-01T08:01:49;114490.28;;;-146.31;81.96
31195;BME280;17819;36.316;-93.164;2022-10-01T08:03:53;114490.28;;;-146.31;82.07
31195;BME280;17819;36.316;-93.164;2022-10-01T08:05:59;114490.28;;;-146.31;82.34
31195;BME280;17819;36.316;-93.164;2022-10-01T08:08:06;114490.28;;;-146.31;83.09
31195;BME280;17819;36.316;-93.164;2022-10-01T08:10:10;114490.28;;;-146.31;83.13
31195;BME280;17819;36.316;-93.164;2022-10-01T08:12:14;114490.28;;;-146.31;82.86
31195;BME280;17819;36.316;-93.164;2022-10-01T08:14:19;114490.28;;;-146.31;84.79
31195;BME280;17819;36.316;-93.164;2022-10-01T08:16:23;114490.28;;;-146.31;85.37
31195;BME280;17819;36.316;-93.164;2022-10-01T08:18:31;114490.28;;;-146.31;85.60
31195;BME280;17819;36.316;-93.164;2022-10-01T08:20:35;114490.28;;;-146.31;84.90
31195;BME280;17819;36.316;-93.164;2022-10-01T08:22:41;114490.28;;;-146.31;85.55
31195;BME280;17819;36.316;-93.164;2022-10-01T08:24:44;114490.28;;;-146.31;85.08
31195;BME280;17819;36.316;-93.164;2022-10-01T08:26:52;114490.28;;;-146.31;84.79
31195;BME280;17819;36.316;-93.164;2022-10-01T08:28:57;114490.28;;;-146.31;84.30
31195;BME280;17819;36.316;-93.164;2022-10-01T08:31:04;114490.28;;;-146.31;84.98
31195;BME280;17819;36.316;-93.164;2022-10-01T08:33:12;114490.28;;;-146.31;85.28
31195;BME280;17819;36.316;-93.164;2022-10-01T08:35:15;114490.28;;;-146.31;85.32
31195;BME280;17819;36.316;-93.164;2022-10-01T08:37:22;114490.28;;;-146.31;86.22
31195;BME280;17819;36.316;-93.164;2022-10-01T08:39:26;114490.28;;;-146.31;86.13
31195;BME280;17819;36.316;-93.164;2022-10-01T08:43:34;114490.28;;;-146.31;86.39
31195;BME280;17819;36.316;-93.164;2022-10-01T08:45:45;114490.28;;;-146.31;86.19
31195;BME280;17819;36.316;-93.164;2022-10-01T08:48:00;114490.28;;;-146.31;86.53
31195;BME280;17819;36.316;-93.164;2022-10-01T08:50:11;114490.28;;;-146.31;85.78
31195;BME280;17819;36.316;-93.164;2022-10-01T08:52:25;114490.28;;;-146.31;87.03
31195;BME280;17819;36.316;-93.164;2022-10-01T08:56:55;114490.28;;;-146.31;85.60
31195;BME280;17819;36.316;-93.164;2022-10-01T08:59:03;114490.28;;;-146.31;84.83
31195;BME280;17819;36.316;-93.164;2022-10-01T09:01:09;114490.28;;;-146.31;86.00
31195;BME280;17819;36.316;-93.164;2022-10-01T09:03:13;114490.28;;;-146.31;85.79
31195;BME280;17819;36.316;-93.164;2022-10-01T09:05:29;114490.28;;;-146.31;86.28
31195;BME280;17819;36.316;-93.164;2022-10-01T09:09:54;114490.28;;;-146.31;86.21
31195;BME280;17819;36.316;-93.164;2022-10-01T09:12:11;114490.28;;;-146.31;87.41
31195;BME280;17819;36.316;-93.164;2022-10-01T09:21:17;114490.28;;;-146.31;90.92
31195;BME280;17819;36.316;-93.164;2022-10-01T09:23:30;114490.28;;;-146.31;90.44
31195;BME280;17819;36.316;-93.164;2022-10-01T09:25:34;114490.28;;;-146.31;90.21
31195;BME280;17819;36.316;-93.164;2022-10-01T09:27:40;114490.28;;;-146.31;90.40
31195;BME280;17819;36.316;-93.164;2022-10-01T09:31:55;114490.28;;;-146.31;90.91
31195;BME280;17819;36.316;-93.164;2022-10-01T09:34:02;114490.28;;;-146.31;90.62
31195;BME280;17819;36.316;-93.164;2022-10-01T09:38:30;114490.28;;;-146.31;90.61
31195;BME280;17819;36.316;-93.164;2022-10-01T09:42:43;114490.28;;;-146.31;91.39
31195;BME280;17819;36.316;-93.164;2022-10-01T09:44:46;114490.28;;;-146.31;92.19
31195;BME280;17819;36.316;-93.164;2022-10-01T09:46:50;114490.28;;;-146.31;93.46
31195;BME280;17819;36.316;-93.164;2022-10-01T09:48:57;114490.28;;;-146.31;93.29
31195;BME280;17819;36.316;-93.164;2022-10-01T09:51:07;114490.28;;;-146.31;95.11
31195;BME280;17819;36.316;-93.164;2022-10-01T09:53:15;114490.28;;;-146.31;93.78
31195;BME280;17819;36.316;-93.164;2022-10-01T09:57:33;114490.28;;;-146.31;93.98
31195;BME280;17819;36.316;-93.164;2022-10-01T10:02:29;114490.28;;;-146.31;94.51
31195;BME280;17819;36.316;-93.164;2022-10-01T10:04:34;114490.28;;;-146.31;94.46
31195;BME280;17819;36.316;-93.164;2022-10-01T10:06:37;114490.28;;;-146.31;95.57
31195;BME280;17819;36.316;-93.164;2022-10-01T10:08:42;114490.28;;;-146.31;96.20
31195;BME280;17819;36.316;-93.164;2022-10-01T10:10:51;114490.28;;;-146.31;97.96
31195;BME280;17819;36.316;-93.164;2022-10-01T10:12:57;114490.28;;;-146.31;97.51
31195;BME280;17819;36.316;-93.164;2022-10-01T10:15:07;114490.28;;;-146.31;97.16
31195;BME280;17819;36.316;-93.164;2022-10-01T10:17:13;114490.28;;;-146.31;97.92
31195;BME280;17819;36.316;-93.164;2022-10-01T10:19:22;114490.28;;;-146.31;98.53
31195;BME280;17819;36.316;-93.164;2022-10-01T10:21:31;114490.28;;;-146.31;98.26
31195;BME280;17819;36.316;-93.164;2022-10-01T10:23:44;114490.28;;;-146.31;97.94
31195;BME280;17819;36.316;-93.164;2022-10-01T10:25:58;114490.28;;;-146.31;98.97
31195;BME280;17819;36.316;-93.164;2022-10-01T10:28:13;114490.28;;;-146.31;98.27
31195;BME280;17819;36.316;-93.164;2022-10-01T10:30:20;114490.28;;;-146.31;97.89
31195;BME280;17819;36.316;-93.164;2022-10-01T10:32:25;114490.28;;;-146.31;98.97
31195;BME280;17819;36.316;-93.164;2022-10-01T10:34:31;114490.28;;;-146.31;99.23
31195;BME280;17819;36.316;-93.164;2022-10-01T10:36:35;114490.28;;;-146.31;99.35
31195;BME280;17819;36.316;-93.164;2022-10-01T10:38:39;114490.28;;;-146.31;99.29
31195;BME280;17819;36.316;-93.164;2022-10-01T10:40:47;114490.28;;;-146.31;99.57
31195;BME280;17819;36.316;-93.164;2022-10-01T10:42:58;114490.28;;;-146.31;99.80
31195;BME280;17819;36.316;-93.164;2022-10-01T10:45:02;114490.28;;;-146.31;100.00
31195;BME280;17819;36.316;-93.164;2022-10-01T10:47:08;114490.28;;;-146.31;100.00
31195;BME280;17819;36.316;-93.164;2022-10-01T10:49:22;114490.28;;;-146.31;100.00
31195;BME280;17819;36.316;-93.164;2022-10-01T10:51:44;114490.28;;;-146.31;100.00
31195;BME280;17819;36.316;-93.164;2022-10-01T10:53:50;114490.28;;;-146.31;100.00
31195;BME280;17819;36.316;-93.164;2022-10-01T10:55:55;114490.28;;;-146.31;100.00
31195;BME280;17819;36.316;-93.164;2022-10-01T10:58:10;114490.28;;;-146.31;100.00
31195;BME280;17819;36.316;-93.164;2022-10-01T11:00:15;114490.28;;;-146.31;100.00
31195;BME280;17819;36.316;-93.164;2022-10-01T11:02:18;114490.28;;;-146.31;100.00
31195;BME280;17819;36.316;-93.164;2022-10-01T11:04:36;114490.28;;;-146.31;100.00
31195;BME280;17819;36.316;-93.164;2022-10-01T11:06:41;114490.28;;;-146.31;100.00
31195;BME280;17819;36.316;-93.164;2022-10-01T11:08:47;114490.28;;;-146.31;100.00
31195;BME280;17819;36.316;-93.164;2022-10-01T11:11:03;114490.28;;;-146.31;100.00